This is the latest recevied weather packets stored in our database for station/object ANJALA. If no packets are shown the sender has not sent any weather packets the latest 10 day(s).
| Time | Temp. | Humidity | Pressure | Rain* | Wind** | Luminosity | Snow |
|---|---|---|---|---|---|---|---|
| 1777625215 | 16.67° C | 49% | - | 0 mm | - | - | - |
| 1777624015 | 15.56° C | 52% | - | 0 mm | - | - | - |
| 1777622815 | 15.56° C | 51% | - | 0 mm | - | - | - |
| 1777621615 | 14.44° C | 53% | - | 0 mm | - | - | - |
| 1777620414 | 14.44° C | 55% | - | 0 mm | - | - | - |
| 1777619214 | 13.89° C | 59% | - | 0 mm | - | - | - |
| 1777618014 | 12.78° C | 59% | - | 0 mm | - | - | - |
| 1777616815 | 12.22° C | 63% | - | 0 mm | - | - | - |
| 1777615614 | 11.11° C | 67% | - | 0 mm | - | - | - |
| 1777614414 | 10.56° C | 69% | - | 0 mm | - | - | - |
| 1777613214 | 10° C | 72% | - | 0 mm | - | - | - |
| 1777612014 | 8.89° C | 77% | - | 0 mm | - | - | - |
| 1777610814 | 8.33° C | 78% | - | 0 mm | - | - | - |
| 1777609614 | 5.56° C | 90% | - | 0 mm | - | - | - |
| 1777608414 | 4.44° C | 86% | - | 0 mm | - | - | - |
| 1777607214 | 2.78° C | 97% | - | 0 mm | - | - | - |
| 1777606014 | 2.22° C | 97% | - | 0 mm | - | - | - |
| 1777604814 | 0.56° C | 95% | - | 0 mm | - | - | - |
| 1777603615 | 0.56° C | 96% | - | 0 mm | - | - | - |
| 1777602414 | 0.56° C | 96% | - | 0 mm | - | - | - |
| 1777586813 | 6.11° C | 89% | - | 0 mm | - | - | - |
| 1777584413 | 7.22° C | 87% | - | 0 mm | - | - | - |
| 1777580812 | 8.33° C | 82% | - | 0 mm | - | - | - |
| 1777579612 | 8.33° C | 82% | - | 0 mm | - | - | - |
| 1777577212 | 9.44° C | 77% | - | 0 mm | - | - | - |
* Rain latest hour (hover to see other rain measurements)
** Current wind speed in m/s (hover to see current wind gust speed)